sensor_id;sensor_type;location;lat;lon;timestamp;temperature;humidity
7411;DHT22;3747;48.628;9.058;2023-05-20T00:00:36;9.70;99.90
7411;DHT22;3747;48.628;9.058;2023-05-20T00:03:03;9.70;99.90
7411;DHT22;3747;48.628;9.058;2023-05-20T00:05:30;9.80;99.90
7411;DHT22;3747;48.628;9.058;2023-05-20T00:07:56;9.90;99.90
7411;DHT22;3747;48.628;9.058;2023-05-20T00:10:26;9.90;99.90
7411;DHT22;3747;48.628;9.058;2023-05-20T00:12:53;9.90;99.90
7411;DHT22;3747;48.628;9.058;2023-05-20T00:15:19;10.00;99.90
7411;DHT22;3747;48.628;9.058;2023-05-20T00:17:46;10.00;99.90
7411;DHT22;3747;48.628;9.058;2023-05-20T00:20:13;10.00;99.90
7411;DHT22;3747;48.628;9.058;2023-05-20T00:22:39;10.10;99.90
7411;DHT22;3747;48.628;9.058;2023-05-20T00:25:07;10.10;99.90
7411;DHT22;3747;48.628;9.058;2023-05-20T00:27:35;10.10;99.90
7411;DHT22;3747;48.628;9.058;2023-05-20T00:30:02;10.10;99.90
7411;DHT22;3747;48.628;9.058;2023-05-20T00:32:28;10.10;99.90
7411;DHT22;3747;48.628;9.058;2023-05-20T00:34:55;10.00;99.90
7411;DHT22;3747;48.628;9.058;2023-05-20T00:37:22;10.00;99.90
7411;DHT22;3747;48.628;9.058;2023-05-20T00:39:49;10.00;99.90
7411;DHT22;3747;48.628;9.058;2023-05-20T00:42:19;10.00;99.90
7411;DHT22;3747;48.628;9.058;2023-05-20T00:44:48;10.00;99.90
7411;DHT22;3747;48.628;9.058;2023-05-20T00:47:15;10.10;99.90
7411;DHT22;3747;48.628;9.058;2023-05-20T00:49:43;10.20;99.90
7411;DHT22;3747;48.628;9.058;2023-05-20T00:52:10;10.20;99.90
7411;DHT22;3747;48.628;9.058;2023-05-20T00:54:37;10.20;99.90
7411;DHT22;3747;48.628;9.058;2023-05-20T00:57:06;10.30;99.90
7411;DHT22;3747;48.628;9.058;2023-05-20T00:59:33;10.30;99.90
7411;DHT22;3747;48.628;9.058;2023-05-20T01:02:02;10.20;99.90
7411;DHT22;3747;48.628;9.058;2023-05-20T01:04:29;10.20;99.90
7411;DHT22;3747;48.628;9.058;2023-05-20T01:06:56;10.20;99.90
7411;DHT22;3747;48.628;9.058;2023-05-20T01:09:24;10.30;99.90
7411;DHT22;3747;48.628;9.058;2023-05-20T01:11:55;10.30;99.90
7411;DHT22;3747;48.628;9.058;2023-05-20T01:14:26;10.30;99.90
7411;DHT22;3747;48.628;9.058;2023-05-20T01:16:55;10.40;99.90
7411;DHT22;3747;48.628;9.058;2023-05-20T01:19:41;10.40;99.90
7411;DHT22;3747;48.628;9.058;2023-05-20T01:22:09;10.40;99.90
7411;DHT22;3747;48.628;9.058;2023-05-20T01:24:40;10.40;99.90
7411;DHT22;3747;48.628;9.058;2023-05-20T01:27:08;10.50;99.90
7411;DHT22;3747;48.628;9.058;2023-05-20T01:29:35;10.50;99.90
7411;DHT22;3747;48.628;9.058;2023-05-20T01:32:04;10.50;99.90
7411;DHT22;3747;48.628;9.058;2023-05-20T01:34:32;10.50;99.90
7411;DHT22;3747;48.628;9.058;2023-05-20T01:37:01;10.50;99.90
7411;DHT22;3747;48.628;9.058;2023-05-20T01:39:29;10.50;99.90
7411;DHT22;3747;48.628;9.058;2023-05-20T01:41:59;10.40;99.90
7411;DHT22;3747;48.628;9.058;2023-05-20T01:44:26;10.40;99.90
7411;DHT22;3747;48.628;9.058;2023-05-20T01:46:53;10.40;99.90
7411;DHT22;3747;48.628;9.058;2023-05-20T01:49:20;10.40;99.90
7411;DHT22;3747;48.628;9.058;2023-05-20T01:51:46;10.40;99.90
7411;DHT22;3747;48.628;9.058;2023-05-20T01:54:13;10.40;99.90
7411;DHT22;3747;48.628;9.058;2023-05-20T01:56:40;10.40;99.90
7411;DHT22;3747;48.628;9.058;2023-05-20T01:59:08;10.30;99.90
7411;DHT22;3747;48.628;9.058;2023-05-20T02:01:34;10.40;99.90
7411;DHT22;3747;48.628;9.058;2023-05-20T02:04:01;10.40;99.90
7411;DHT22;3747;48.628;9.058;2023-05-20T02:06:28;10.40;99.90
7411;DHT22;3747;48.628;9.058;2023-05-20T02:08:54;10.30;99.90
7411;DHT22;3747;48.628;9.058;2023-05-20T02:11:21;10.30;99.90
7411;DHT22;3747;48.628;9.058;2023-05-20T02:13:49;10.20;99.90
7411;DHT22;3747;48.628;9.058;2023-05-20T02:16:17;10.20;99.90
7411;DHT22;3747;48.628;9.058;2023-05-20T02:18:44;10.30;99.90
7411;DHT22;3747;48.628;9.058;2023-05-20T02:21:10;10.30;99.90
7411;DHT22;3747;48.628;9.058;2023-05-20T02:23:37;10.20;99.90
7411;DHT22;3747;48.628;9.058;2023-05-20T02:26:04;10.20;99.90
7411;DHT22;3747;48.628;9.058;2023-05-20T02:28:31;10.20;99.90
7411;DHT22;3747;48.628;9.058;2023-05-20T02:30:58;10.10;99.90
7411;DHT22;3747;48.628;9.058;2023-05-20T02:33:26;10.10;99.90
7411;DHT22;3747;48.628;9.058;2023-05-20T02:35:53;10.10;99.90
7411;DHT22;3747;48.628;9.058;2023-05-20T02:38:20;10.10;99.90
7411;DHT22;3747;48.628;9.058;2023-05-20T02:40:47;10.10;99.90
7411;DHT22;3747;48.628;9.058;2023-05-20T02:43:13;10.10;99.90
7411;DHT22;3747;48.628;9.058;2023-05-20T02:45:40;10.10;99.90
7411;DHT22;3747;48.628;9.058;2023-05-20T02:48:06;10.10;99.90
7411;DHT22;3747;48.628;9.058;2023-05-20T02:50:37;10.10;99.90
7411;DHT22;3747;48.628;9.058;2023-05-20T02:53:04;10.10;99.90
7411;DHT22;3747;48.628;9.058;2023-05-20T02:55:33;10.10;99.90
7411;DHT22;3747;48.628;9.058;2023-05-20T02:57:59;10.10;99.90
7411;DHT22;3747;48.628;9.058;2023-05-20T03:00:26;10.10;99.90
7411;DHT22;3747;48.628;9.058;2023-05-20T03:02:54;10.10;99.90
7411;DHT22;3747;48.628;9.058;2023-05-20T03:05:21;10.10;99.90
7411;DHT22;3747;48.628;9.058;2023-05-20T03:07:49;10.10;99.90
7411;DHT22;3747;48.628;9.058;2023-05-20T03:10:16;10.10;99.90
7411;DHT22;3747;48.628;9.058;2023-05-20T03:12:42;10.10;99.90
7411;DHT22;3747;48.628;9.058;2023-05-20T03:15:10;10.10;99.90
7411;DHT22;3747;48.628;9.058;2023-05-20T03:17:36;10.10;99.90
7411;DHT22;3747;48.628;9.058;2023-05-20T03:20:04;10.10;99.90
7411;DHT22;3747;48.628;9.058;2023-05-20T03:22:31;10.00;99.90
7411;DHT22;3747;48.628;9.058;2023-05-20T03:24:59;10.00;99.90
7411;DHT22;3747;48.628;9.058;2023-05-20T03:27:26;10.00;99.90
7411;DHT22;3747;48.628;9.058;2023-05-20T03:29:53;9.90;99.90
7411;DHT22;3747;48.628;9.058;2023-05-20T03:32:20;9.90;99.90
7411;DHT22;3747;48.628;9.058;2023-05-20T03:34:47;9.90;99.90
7411;DHT22;3747;48.628;9.058;2023-05-20T03:37:14;9.90;99.90
7411;DHT22;3747;48.628;9.058;2023-05-20T03:39:40;9.90;99.90
7411;DHT22;3747;48.628;9.058;2023-05-20T03:42:08;9.90;99.90
7411;DHT22;3747;48.628;9.058;2023-05-20T03:44:35;9.90;99.90
7411;DHT22;3747;48.628;9.058;2023-05-20T03:47:01;9.90;99.90
7411;DHT22;3747;48.628;9.058;2023-05-20T03:49:28;9.90;99.90
7411;DHT22;3747;48.628;9.058;2023-05-20T03:51:55;9.90;99.90
7411;DHT22;3747;48.628;9.058;2023-05-20T03:54:21;9.90;99.90
7411;DHT22;3747;48.628;9.058;2023-05-20T03:56:48;9.90;99.90
7411;DHT22;3747;48.628;9.058;2023-05-20T03:59:17;9.90;99.90
7411;DHT22;3747;48.628;9.058;2023-05-20T04:01:44;9.90;99.90
7411;DHT22;3747;48.628;9.058;2023-05-20T04:04:11;9.90;99.90
7411;DHT22;3747;48.628;9.058;2023-05-20T04:06:38;9.90;99.90
7411;DHT22;3747;48.628;9.058;2023-05-20T04:09:04;9.90;99.90
7411;DHT22;3747;48.628;9.058;2023-05-20T04:11:31;9.90;99.90
7411;DHT22;3747;48.628;9.058;2023-05-20T04:13:58;10.00;99.90
7411;DHT22;3747;48.628;9.058;2023-05-20T04:16:26;10.00;99.90
7411;DHT22;3747;48.628;9.058;2023-05-20T04:18:53;10.10;99.90
7411;DHT22;3747;48.628;9.058;2023-05-20T04:21:20;10.10;99.90
7411;DHT22;3747;48.628;9.058;2023-05-20T04:23:48;10.10;99.90
7411;DHT22;3747;48.628;9.058;2023-05-20T04:26:14;10.20;99.90
7411;DHT22;3747;48.628;9.058;2023-05-20T04:28:41;10.20;99.90
7411;DHT22;3747;48.628;9.058;2023-05-20T04:31:08;10.20;99.90
7411;DHT22;3747;48.628;9.058;2023-05-20T04:33:36;10.20;99.90
7411;DHT22;3747;48.628;9.058;2023-05-20T04:36:05;10.20;99.90
7411;DHT22;3747;48.628;9.058;2023-05-20T04:38:32;10.30;99.90
7411;DHT22;3747;48.628;9.058;2023-05-20T04:41:00;10.30;99.90
7411;DHT22;3747;48.628;9.058;2023-05-20T04:43:28;10.30;99.90
7411;DHT22;3747;48.628;9.058;2023-05-20T04:45:55;10.40;99.90
7411;DHT22;3747;48.628;9.058;2023-05-20T04:48:23;10.50;99.90
7411;DHT22;3747;48.628;9.058;2023-05-20T04:50:51;10.60;99.90
7411;DHT22;3747;48.628;9.058;2023-05-20T04:53:19;10.70;99.90
7411;DHT22;3747;48.628;9.058;2023-05-20T04:55:48;10.80;99.90
7411;DHT22;3747;48.628;9.058;2023-05-20T04:58:18;10.90;99.90
7411;DHT22;3747;48.628;9.058;2023-05-20T05:00:45;11.00;99.90
7411;DHT22;3747;48.628;9.058;2023-05-20T05:03:12;11.10;99.90
7411;DHT22;3747;48.628;9.058;2023-05-20T05:05:38;11.20;99.90
7411;DHT22;3747;48.628;9.058;2023-05-20T05:08:08;11.20;99.90
7411;DHT22;3747;48.628;9.058;2023-05-20T05:10:36;11.40;99.90
7411;DHT22;3747;48.628;9.058;2023-05-20T05:13:03;11.50;99.90
7411;DHT22;3747;48.628;9.058;2023-05-20T05:15:29;11.60;99.90
7411;DHT22;3747;48.628;9.058;2023-05-20T05:17:56;11.70;99.90
7411;DHT22;3747;48.628;9.058;2023-05-20T05:20:23;11.80;99.90
7411;DHT22;3747;48.628;9.058;2023-05-20T05:22:49;11.80;99.90
7411;DHT22;3747;48.628;9.058;2023-05-20T05:25:18;11.90;99.90
7411;DHT22;3747;48.628;9.058;2023-05-20T05:27:44;12.00;99.90
7411;DHT22;3747;48.628;9.058;2023-05-20T05:30:13;12.00;99.90
7411;DHT22;3747;48.628;9.058;2023-05-20T05:32:40;12.10;99.90
7411;DHT22;3747;48.628;9.058;2023-05-20T05:35:07;12.30;99.90
7411;DHT22;3747;48.628;9.058;2023-05-20T05:37:34;12.20;99.90
7411;DHT22;3747;48.628;9.058;2023-05-20T05:40:01;12.40;99.90
7411;DHT22;3747;48.628;9.058;2023-05-20T05:42:29;12.50;99.90
7411;DHT22;3747;48.628;9.058;2023-05-20T05:44:56;12.60;99.90
7411;DHT22;3747;48.628;9.058;2023-05-20T05:47:23;12.80;99.90
7411;DHT22;3747;48.628;9.058;2023-05-20T05:49:54;12.90;99.90
7411;DHT22;3747;48.628;9.058;2023-05-20T05:52:20;13.00;99.90
7411;DHT22;3747;48.628;9.058;2023-05-20T05:54:47;13.20;99.90
7411;DHT22;3747;48.628;9.058;2023-05-20T05:57:13;13.50;99.90
7411;DHT22;3747;48.628;9.058;2023-05-20T05:59:42;13.70;99.90
7411;DHT22;3747;48.628;9.058;2023-05-20T06:02:08;13.70;99.90
7411;DHT22;3747;48.628;9.058;2023-05-20T06:04:35;13.70;99.90
7411;DHT22;3747;48.628;9.058;2023-05-20T06:07:02;13.90;99.90
7411;DHT22;3747;48.628;9.058;2023-05-20T06:09:28;14.00;99.90
7411;DHT22;3747;48.628;9.058;2023-05-20T06:11:55;14.10;99.90
7411;DHT22;3747;48.628;9.058;2023-05-20T06:14:22;14.20;99.90
7411;DHT22;3747;48.628;9.058;2023-05-20T06:16:50;14.20;99.90
7411;DHT22;3747;48.628;9.058;2023-05-20T06:19:16;14.20;99.90
7411;DHT22;3747;48.628;9.058;2023-05-20T06:21:43;14.20;99.90
7411;DHT22;3747;48.628;9.058;2023-05-20T06:24:10;14.30;99.90
7411;DHT22;3747;48.628;9.058;2023-05-20T06:26:36;14.40;99.90
7411;DHT22;3747;48.628;9.058;2023-05-20T06:29:03;14.30;99.90
7411;DHT22;3747;48.628;9.058;2023-05-20T06:31:30;14.40;99.90
7411;DHT22;3747;48.628;9.058;2023-05-20T06:33:58;14.40;99.90
7411;DHT22;3747;48.628;9.058;2023-05-20T06:36:26;14.40;99.90
7411;DHT22;3747;48.628;9.058;2023-05-20T06:38:52;14.40;99.90
7411;DHT22;3747;48.628;9.058;2023-05-20T06:41:19;14.60;99.90
7411;DHT22;3747;48.628;9.058;2023-05-20T06:43:46;14.70;99.90
7411;DHT22;3747;48.628;9.058;2023-05-20T06:46:13;14.90;99.90
7411;DHT22;3747;48.628;9.058;2023-05-20T06:48:40;15.20;99.90
7411;DHT22;3747;48.628;9.058;2023-05-20T06:51:08;15.30;99.90
7411;DHT22;3747;48.628;9.058;2023-05-20T06:53:35;15.10;99.90
7411;DHT22;3747;48.628;9.058;2023-05-20T06:56:02;15.10;99.90
7411;DHT22;3747;48.628;9.058;2023-05-20T06:58:29;15.00;99.90
7411;DHT22;3747;48.628;9.058;2023-05-20T07:00:55;15.20;99.90
7411;DHT22;3747;48.628;9.058;2023-05-20T07:03:22;15.50;99.90
7411;DHT22;3747;48.628;9.058;2023-05-20T07:05:49;15.60;99.90
7411;DHT22;3747;48.628;9.058;2023-05-20T07:08:18;15.70;99.90
7411;DHT22;3747;48.628;9.058;2023-05-20T07:10:44;15.30;99.90
7411;DHT22;3747;48.628;9.058;2023-05-20T07:13:12;15.30;99.90
7411;DHT22;3747;48.628;9.058;2023-05-20T07:15:38;15.30;99.90
7411;DHT22;3747;48.628;9.058;2023-05-20T07:18:05;15.60;99.90
7411;DHT22;3747;48.628;9.058;2023-05-20T07:20:32;15.80;99.90
7411;DHT22;3747;48.628;9.058;2023-05-20T07:22:58;15.70;99.90
7411;DHT22;3747;48.628;9.058;2023-05-20T07:25:28;15.70;99.90
7411;DHT22;3747;48.628;9.058;2023-05-20T07:27:55;15.60;99.90
7411;DHT22;3747;48.628;9.058;2023-05-20T07:30:21;15.70;99.90
7411;DHT22;3747;48.628;9.058;2023-05-20T07:32:48;15.70;99.90
7411;DHT22;3747;48.628;9.058;2023-05-20T07:35:15;16.20;99.90
7411;DHT22;3747;48.628;9.058;2023-05-20T07:37:49;16.60;99.90
7411;DHT22;3747;48.628;9.058;2023-05-20T07:40:17;17.00;99.90
7411;DHT22;3747;48.628;9.058;2023-05-20T07:42:46;17.30;99.90
7411;DHT22;3747;48.628;9.058;2023-05-20T07:45:13;17.30;99.90
7411;DHT22;3747;48.628;9.058;2023-05-20T07:47:40;16.90;99.90
7411;DHT22;3747;48.628;9.058;2023-05-20T07:50:07;16.90;99.90
7411;DHT22;3747;48.628;9.058;2023-05-20T07:52:34;16.80;99.90
7411;DHT22;3747;48.628;9.058;2023-05-20T07:55:00;16.80;99.90
7411;DHT22;3747;48.628;9.058;2023-05-20T07:57:28;17.00;99.90
7411;DHT22;3747;48.628;9.058;2023-05-20T07:59:56;16.70;99.90
7411;DHT22;3747;48.628;9.058;2023-05-20T08:02:22;16.90;99.90
7411;DHT22;3747;48.628;9.058;2023-05-20T08:04:50;16.90;99.90
7411;DHT22;3747;48.628;9.058;2023-05-20T08:07:17;16.90;99.90
7411;DHT22;3747;48.628;9.058;2023-05-20T08:09:44;16.80;99.90
7411;DHT22;3747;48.628;9.058;2023-05-20T08:12:10;16.70;99.90
7411;DHT22;3747;48.628;9.058;2023-05-20T08:14:37;17.10;99.90
7411;DHT22;3747;48.628;9.058;2023-05-20T08:17:05;17.00;99.90
7411;DHT22;3747;48.628;9.058;2023-05-20T08:19:32;17.10;99.90
7411;DHT22;3747;48.628;9.058;2023-05-20T08:21:58;17.30;99.90
7411;DHT22;3747;48.628;9.058;2023-05-20T08:24:25;17.10;99.90
7411;DHT22;3747;48.628;9.058;2023-05-20T08:26:52;17.10;99.90
7411;DHT22;3747;48.628;9.058;2023-05-20T08:29:19;16.70;99.90
7411;DHT22;3747;48.628;9.058;2023-05-20T08:31:46;16.70;99.90
7411;DHT22;3747;48.628;9.058;2023-05-20T08:34:14;16.60;99.90
7411;DHT22;3747;48.628;9.058;2023-05-20T08:36:41;16.30;99.90
7411;DHT22;3747;48.628;9.058;2023-05-20T08:39:09;16.20;99.90
7411;DHT22;3747;48.628;9.058;2023-05-20T08:41:37;16.30;99.90
7411;DHT22;3747;48.628;9.058;2023-05-20T08:44:07;16.60;99.90
7411;DHT22;3747;48.628;9.058;2023-05-20T08:46:36;17.00;99.90
7411;DHT22;3747;48.628;9.058;2023-05-20T08:49:04;17.30;99.90
7411;DHT22;3747;48.628;9.058;2023-05-20T08:51:32;18.00;99.90
7411;DHT22;3747;48.628;9.058;2023-05-20T08:54:01;18.50;99.90
7411;DHT22;3747;48.628;9.058;2023-05-20T08:56:28;18.90;99.90
7411;DHT22;3747;48.628;9.058;2023-05-20T08:58:57;20.00;99.90
7411;DHT22;3747;48.628;9.058;2023-05-20T09:01:24;20.60;99.90
7411;DHT22;3747;48.628;9.058;2023-05-20T09:03:51;21.10;99.90
7411;DHT22;3747;48.628;9.058;2023-05-20T09:06:18;20.70;99.90
7411;DHT22;3747;48.628;9.058;2023-05-20T09:08:47;20.00;99.90
7411;DHT22;3747;48.628;9.058;2023-05-20T09:11:14;19.60;99.90
7411;DHT22;3747;48.628;9.058;2023-05-20T09:13:42;19.40;99.90
7411;DHT22;3747;48.628;9.058;2023-05-20T09:16:09;19.20;99.90
7411;DHT22;3747;48.628;9.058;2023-05-20T09:18:37;18.90;99.90
7411;DHT22;3747;48.628;9.058;2023-05-20T09:21:05;18.80;99.90
7411;DHT22;3747;48.628;9.058;2023-05-20T09:23:32;18.70;99.90
7411;DHT22;3747;48.628;9.058;2023-05-20T09:26:01;18.70;99.90
7411;DHT22;3747;48.628;9.058;2023-05-20T09:28:27;18.50;99.90
7411;DHT22;3747;48.628;9.058;2023-05-20T09:30:57;18.80;99.90
7411;DHT22;3747;48.628;9.058;2023-05-20T09:33:26;18.90;99.90
7411;DHT22;3747;48.628;9.058;2023-05-20T09:36:03;19.40;99.90
7411;DHT22;3747;48.628;9.058;2023-05-20T09:38:33;19.20;99.90
7411;DHT22;3747;48.628;9.058;2023-05-20T09:41:06;19.20;99.90
7411;DHT22;3747;48.628;9.058;2023-05-20T09:43:33;19.40;99.90
7411;DHT22;3747;48.628;9.058;2023-05-20T09:46:01;19.70;99.90
7411;DHT22;3747;48.628;9.058;2023-05-20T09:48:29;20.50;99.90
7411;DHT22;3747;48.628;9.058;2023-05-20T09:50:56;21.40;99.90
7411;DHT22;3747;48.628;9.058;2023-05-20T09:53:26;22.30;99.90
7411;DHT22;3747;48.628;9.058;2023-05-20T09:55:53;23.50;99.90
7411;DHT22;3747;48.628;9.058;2023-05-20T09:58:22;23.20;99.90
7411;DHT22;3747;48.628;9.058;2023-05-20T10:00:49;23.10;99.90
7411;DHT22;3747;48.628;9.058;2023-05-20T10:03:17;23.30;99.90
7411;DHT22;3747;48.628;9.058;2023-05-20T10:05:50;23.10;99.90
7411;DHT22;3747;48.628;9.058;2023-05-20T10:08:39;22.30;99.90
7411;DHT22;3747;48.628;9.058;2023-05-20T10:11:13;22.80;99.90
7411;DHT22;3747;48.628;9.058;2023-05-20T10:14:00;23.10;99.90
7411;DHT22;3747;48.628;9.058;2023-05-20T10:16:33;23.00;99.90
7411;DHT22;3747;48.628;9.058;2023-05-20T10:19:12;22.50;99.90
7411;DHT22;3747;48.628;9.058;2023-05-20T10:21:44;21.70;99.90
7411;DHT22;3747;48.628;9.058;2023-05-20T10:24:28;21.40;99.90
7411;DHT22;3747;48.628;9.058;2023-05-20T10:26:57;21.10;99.90
7411;DHT22;3747;48.628;9.058;2023-05-20T10:29:26;21.10;99.90
7411;DHT22;3747;48.628;9.058;2023-05-20T10:31:52;20.90;99.90
7411;DHT22;3747;48.628;9.058;2023-05-20T10:34:21;20.90;99.90
7411;DHT22;3747;48.628;9.058;2023-05-20T10:36:57;21.30;99.90
7411;DHT22;3747;48.628;9.058;2023-05-20T10:39:25;21.40;99.90
7411;DHT22;3747;48.628;9.058;2023-05-20T10:41:52;21.10;99.90
7411;DHT22;3747;48.628;9.058;2023-05-20T10:44:19;21.10;99.90
7411;DHT22;3747;48.628;9.058;2023-05-20T10:47:01;20.60;99.90
7411;DHT22;3747;48.628;9.058;2023-05-20T10:49:32;20.80;99.90
7411;DHT22;3747;48.628;9.058;2023-05-20T10:52:00;21.60;99.90
7411;DHT22;3747;48.628;9.058;2023-05-20T10:54:27;22.40;99.90
7411;DHT22;3747;48.628;9.058;2023-05-20T10:56:54;23.40;99.90
7411;DHT22;3747;48.628;9.058;2023-05-20T10:59:21;23.40;99.90
7411;DHT22;3747;48.628;9.058;2023-05-20T11:01:50;24.00;99.90
7411;DHT22;3747;48.628;9.058;2023-05-20T11:04:17;23.50;99.90
7411;DHT22;3747;48.628;9.058;2023-05-20T11:06:50;23.60;99.90
7411;DHT22;3747;48.628;9.058;2023-05-20T11:09:18;23.20;99.90
7411;DHT22;3747;48.628;9.058;2023-05-20T11:11:45;22.60;99.90
7411;DHT22;3747;48.628;9.058;2023-05-20T11:14:12;22.80;99.90
7411;DHT22;3747;48.628;9.058;2023-05-20T11:16:39;23.10;99.90
7411;DHT22;3747;48.628;9.058;2023-05-20T11:19:07;24.50;99.90
7411;DHT22;3747;48.628;9.058;2023-05-20T11:21:41;25.10;99.90
7411;DHT22;3747;48.628;9.058;2023-05-20T11:24:08;25.10;99.90
7411;DHT22;3747;48.628;9.058;2023-05-20T11:26:36;24.70;99.90
7411;DHT22;3747;48.628;9.058;2023-05-20T11:29:03;24.70;99.90
7411;DHT22;3747;48.628;9.058;2023-05-20T11:31:30;25.30;99.90
7411;DHT22;3747;48.628;9.058;2023-05-20T11:33:58;25.10;99.90
7411;DHT22;3747;48.628;9.058;2023-05-20T11:36:28;24.40;99.90
7411;DHT22;3747;48.628;9.058;2023-05-20T11:38:56;24.30;99.90
7411;DHT22;3747;48.628;9.058;2023-05-20T11:41:23;23.80;99.90
7411;DHT22;3747;48.628;9.058;2023-05-20T11:43:55;23.80;99.90
7411;DHT22;3747;48.628;9.058;2023-05-20T11:46:22;23.70;99.90
7411;DHT22;3747;48.628;9.058;2023-05-20T11:48:52;23.60;99.90
7411;DHT22;3747;48.628;9.058;2023-05-20T11:51:22;23.40;99.90
7411;DHT22;3747;48.628;9.058;2023-05-20T11:53:58;23.60;99.90
7411;DHT22;3747;48.628;9.058;2023-05-20T11:56:25;24.80;99.90
7411;DHT22;3747;48.628;9.058;2023-05-20T11:58:56;26.10;99.90
7411;DHT22;3747;48.628;9.058;2023-05-20T12:01:23;27.00;99.90
7411;DHT22;3747;48.628;9.058;2023-05-20T12:03:49;27.20;99.90
7411;DHT22;3747;48.628;9.058;2023-05-20T12:06:16;27.70;99.90
7411;DHT22;3747;48.628;9.058;2023-05-20T12:08:43;28.30;99.90
7411;DHT22;3747;48.628;9.058;2023-05-20T12:11:11;28.60;99.90
7411;DHT22;3747;48.628;9.058;2023-05-20T12:13:38;28.90;99.90
7411;DHT22;3747;48.628;9.058;2023-05-20T12:16:05;28.10;99.90
7411;DHT22;3747;48.628;9.058;2023-05-20T12:18:32;28.50;99.90
7411;DHT22;3747;48.628;9.058;2023-05-20T12:20:59;28.30;99.90
7411;DHT22;3747;48.628;9.058;2023-05-20T12:23:26;28.10;99.90
7411;DHT22;3747;48.628;9.058;2023-05-20T12:25:55;27.50;99.90
7411;DHT22;3747;48.628;9.058;2023-05-20T12:28:23;27.70;99.90
7411;DHT22;3747;48.628;9.058;2023-05-20T12:30:49;28.30;99.90
7411;DHT22;3747;48.628;9.058;2023-05-20T12:33:16;28.20;99.90
7411;DHT22;3747;48.628;9.058;2023-05-20T12:35:45;27.50;99.90
7411;DHT22;3747;48.628;9.058;2023-05-20T12:38:11;26.20;99.90
7411;DHT22;3747;48.628;9.058;2023-05-20T12:40:38;26.10;99.90
7411;DHT22;3747;48.628;9.058;2023-05-20T12:43:05;25.00;99.90
7411;DHT22;3747;48.628;9.058;2023-05-20T12:45:33;24.70;99.90
7411;DHT22;3747;48.628;9.058;2023-05-20T12:48:00;24.50;99.90
7411;DHT22;3747;48.628;9.058;2023-05-20T12:50:27;24.20;99.90
7411;DHT22;3747;48.628;9.058;2023-05-20T12:52:54;24.50;99.90
7411;DHT22;3747;48.628;9.058;2023-05-20T12:55:21;24.70;99.90
7411;DHT22;3747;48.628;9.058;2023-05-20T12:57:49;24.70;99.90
7411;DHT22;3747;48.628;9.058;2023-05-20T13:00:16;24.40;99.90
7411;DHT22;3747;48.628;9.058;2023-05-20T13:02:44;24.50;99.90
7411;DHT22;3747;48.628;9.058;2023-05-20T13:05:12;25.10;99.90
7411;DHT22;3747;48.628;9.058;2023-05-20T13:07:39;26.00;99.90
7411;DHT22;3747;48.628;9.058;2023-05-20T13:10:07;25.70;99.90
7411;DHT22;3747;48.628;9.058;2023-05-20T13:12:35;26.50;99.90
7411;DHT22;3747;48.628;9.058;2023-05-20T13:15:02;28.20;99.90
7411;DHT22;3747;48.628;9.058;2023-05-20T13:17:29;28.10;99.30
7411;DHT22;3747;48.628;9.058;2023-05-20T13:19:57;28.30;99.10
7411;DHT22;3747;48.628;9.058;2023-05-20T13:22:24;28.40;99.20
7411;DHT22;3747;48.628;9.058;2023-05-20T13:24:51;27.30;98.40
7411;DHT22;3747;48.628;9.058;2023-05-20T13:27:17;25.70;99.60
7411;DHT22;3747;48.628;9.058;2023-05-20T13:29:44;24.70;99.90
7411;DHT22;3747;48.628;9.058;2023-05-20T13:32:11;24.60;99.90
7411;DHT22;3747;48.628;9.058;2023-05-20T13:34:37;24.00;99.90
7411;DHT22;3747;48.628;9.058;2023-05-20T13:37:06;24.00;99.90
7411;DHT22;3747;48.628;9.058;2023-05-20T13:39:33;24.20;99.90
7411;DHT22;3747;48.628;9.058;2023-05-20T13:42:00;24.00;99.90
7411;DHT22;3747;48.628;9.058;2023-05-20T13:44:28;23.90;99.90
7411;DHT22;3747;48.628;9.058;2023-05-20T13:46:55;23.50;99.90
7411;DHT22;3747;48.628;9.058;2023-05-20T13:49:22;23.90;99.90
7411;DHT22;3747;48.628;9.058;2023-05-20T13:51:50;23.70;99.90
7411;DHT22;3747;48.628;9.058;2023-05-20T13:54:18;23.50;99.90
7411;DHT22;3747;48.628;9.058;2023-05-20T13:56:45;23.50;99.90
7411;DHT22;3747;48.628;9.058;2023-05-20T13:59:12;23.50;99.90
7411;DHT22;3747;48.628;9.058;2023-05-20T14:01:39;23.30;99.90
7411;DHT22;3747;48.628;9.058;2023-05-20T14:04:09;23.60;99.90
7411;DHT22;3747;48.628;9.058;2023-05-20T14:06:36;23.50;99.90
7411;DHT22;3747;48.628;9.058;2023-05-20T14:09:05;24.10;99.90
7411;DHT22;3747;48.628;9.058;2023-05-20T14:11:34;24.80;99.90
7411;DHT22;3747;48.628;9.058;2023-05-20T14:14:01;25.60;99.90
7411;DHT22;3747;48.628;9.058;2023-05-20T14:16:27;25.80;99.90
7411;DHT22;3747;48.628;9.058;2023-05-20T14:18:54;25.80;99.90
7411;DHT22;3747;48.628;9.058;2023-05-20T14:21:21;26.00;99.90
7411;DHT22;3747;48.628;9.058;2023-05-20T14:23:47;26.10;99.90
7411;DHT22;3747;48.628;9.058;2023-05-20T14:26:14;26.70;99.90
7411;DHT22;3747;48.628;9.058;2023-05-20T14:28:42;27.30;99.90
7411;DHT22;3747;48.628;9.058;2023-05-20T14:31:09;26.50;99.80
7411;DHT22;3747;48.628;9.058;2023-05-20T14:33:36;25.30;99.90
7411;DHT22;3747;48.628;9.058;2023-05-20T14:36:03;24.60;99.90
7411;DHT22;3747;48.628;9.058;2023-05-20T14:38:30;24.20;99.90
7411;DHT22;3747;48.628;9.058;2023-05-20T14:40:56;23.30;99.90
7411;DHT22;3747;48.628;9.058;2023-05-20T14:43:23;23.50;99.90
7411;DHT22;3747;48.628;9.058;2023-05-20T14:45:51;23.30;99.90
7411;DHT22;3747;48.628;9.058;2023-05-20T14:48:18;23.60;99.90
7411;DHT22;3747;48.628;9.058;2023-05-20T14:50:45;23.90;99.90
7411;DHT22;3747;48.628;9.058;2023-05-20T14:53:11;23.90;99.90
7411;DHT22;3747;48.628;9.058;2023-05-20T14:55:38;23.70;99.90
7411;DHT22;3747;48.628;9.058;2023-05-20T14:58:05;23.60;99.90
7411;DHT22;3747;48.628;9.058;2023-05-20T15:00:31;23.30;99.90
7411;DHT22;3747;48.628;9.058;2023-05-20T15:02:59;23.30;99.90
7411;DHT22;3747;48.628;9.058;2023-05-20T15:05:26;23.30;99.90
7411;DHT22;3747;48.628;9.058;2023-05-20T15:07:53;23.60;99.90
7411;DHT22;3747;48.628;9.058;2023-05-20T15:10:20;23.50;99.90
7411;DHT22;3747;48.628;9.058;2023-05-20T15:12:46;23.50;99.90
7411;DHT22;3747;48.628;9.058;2023-05-20T15:15:13;23.90;99.90
7411;DHT22;3747;48.628;9.058;2023-05-20T15:17:40;24.70;99.90
7411;DHT22;3747;48.628;9.058;2023-05-20T15:20:09;25.40;99.90
7411;DHT22;3747;48.628;9.058;2023-05-20T15:22:35;26.70;99.70
7411;DHT22;3747;48.628;9.058;2023-05-20T15:25:02;27.50;99.40
7411;DHT22;3747;48.628;9.058;2023-05-20T15:27:29;27.30;99.50
7411;DHT22;3747;48.628;9.058;2023-05-20T15:29:56;27.10;98.60
7411;DHT22;3747;48.628;9.058;2023-05-20T15:32:23;26.40;98.30
7411;DHT22;3747;48.628;9.058;2023-05-20T15:34:50;25.60;99.30
7411;DHT22;3747;48.628;9.058;2023-05-20T15:37:18;25.50;99.90
7411;DHT22;3747;48.628;9.058;2023-05-20T15:39:45;25.80;98.50
7411;DHT22;3747;48.628;9.058;2023-05-20T15:42:12;26.50;98.10
7411;DHT22;3747;48.628;9.058;2023-05-20T15:44:42;27.50;97.10
7411;DHT22;3747;48.628;9.058;2023-05-20T15:47:09;28.20;97.20
7411;DHT22;3747;48.628;9.058;2023-05-20T15:49:36;28.50;97.00
7411;DHT22;3747;48.628;9.058;2023-05-20T15:52:03;28.50;96.40
7411;DHT22;3747;48.628;9.058;2023-05-20T15:54:31;29.10;95.90
7411;DHT22;3747;48.628;9.058;2023-05-20T15:56:58;29.50;96.10
7411;DHT22;3747;48.628;9.058;2023-05-20T15:59:25;29.30;95.20
7411;DHT22;3747;48.628;9.058;2023-05-20T16:01:51;29.30;95.80
7411;DHT22;3747;48.628;9.058;2023-05-20T16:04:18;28.90;95.30